Time;durP1;ratioP1;P1;durP2;ratioP2;P2;SDS_P1;SDS_P2;PMS_P1;PMS_P2;Temp;Humidity;BMP_temperature;BMP_pressure;BME280_temperature;BME280_humidity;BME280_pressure;Samples;Min_cycle;Max_cycle;Signal;HPM_P1;HPM_P2
2021/04/25 00:01:00;;;;;;;14.63;10.13;;;;;;;17.59;44.10;101570.81;4953759;28;20043;-69
2021/04/25 00:03:26;;;;;;;13.40;9.80;;;;;;;17.58;44.12;101570.94;4953678;28;20047;-61
2021/04/25 00:05:52;;;;;;;13.23;9.93;;;;;;;17.56;44.07;101567.53;4953458;28;20051;-64
2021/04/25 00:08:18;;;;;;;16.15;10.52;;;;;;;17.55;43.83;101560.56;4956506;28;20046;-62
2021/04/25 00:10:44;;;;;;;16.42;10.27;;;;;;;17.54;43.77;101566.81;4940309;28;20055;-61
2021/04/25 00:13:10;;;;;;;14.50;9.73;;;;;;;17.50;43.85;101566.19;4953487;28;20047;-62
2021/04/25 00:15:37;;;;;;;13.27;9.60;;;;;;;17.45;44.09;101563.03;4953725;28;20048;-61
2021/04/25 00:18:03;;;;;;;13.85;9.75;;;;;;;17.35;44.41;101559.34;4954470;28;20102;-61
2021/04/25 00:20:30;;;;;;;13.32;9.48;;;;;;;17.30;44.29;101555.19;4957025;28;20062;-61
2021/04/25 00:22:56;;;;;;;17.40;10.05;;;;;;;17.27;44.55;101550.13;4956658;28;20047;-61
2021/04/25 00:25:22;;;;;;;15.88;10.27;;;;;;;17.26;44.66;101550.25;4954360;28;20043;-61
2021/04/25 00:27:49;;;;;;;18.67;10.13;;;;;;;17.25;44.49;101543.25;4952222;29;20424;-61
2021/04/25 00:30:18;;;;;;;13.35;9.90;;;;;;;17.21;44.60;101542.59;4956274;28;20385;-61
2021/04/25 00:32:46;;;;;;;18.90;11.32;;;;;;;17.19;44.77;101538.38;4956766;28;20051;-61
2021/04/25 00:35:13;;;;;;;14.98;9.88;;;;;;;17.15;44.86;101535.09;4956432;28;20047;-63
2021/04/25 00:37:39;;;;;;;15.13;10.23;;;;;;;17.11;44.92;101530.97;4956680;28;20051;-61
2021/04/25 00:40:08;;;;;;;15.23;9.93;;;;;;;17.08;44.86;101516.13;4956321;28;20043;-62
2021/04/25 00:42:35;;;;;;;14.35;10.35;;;;;;;17.06;44.92;101517.19;4948455;28;20044;-62
2021/04/25 00:45:04;;;;;;;16.10;9.82;;;;;;;17.04;44.81;101512.00;4954031;29;20484;-61
2021/04/25 00:47:31;;;;;;;15.02;9.88;;;;;;;17.03;44.93;101510.31;4956467;28;20110;-62
2021/04/25 00:49:57;;;;;;;18.00;9.63;;;;;;;17.03;44.80;101505.00;4956094;28;20051;-62
2021/04/25 00:52:23;;;;;;;15.80;9.98;;;;;;;17.03;44.80;101502.34;4956271;28;20059;-61
2021/04/25 00:54:50;;;;;;;13.88;9.02;;;;;;;17.03;44.86;101497.06;4956319;28;20059;-61
2021/04/25 00:57:16;;;;;;;14.07;9.77;;;;;;;17.04;44.63;101500.53;4956209;28;20047;-63
2021/04/25 00:59:43;;;;;;;12.52;9.48;;;;;;;17.05;44.66;101502.25;4950521;28;20098;-63
2021/04/25 01:02:10;;;;;;;17.45;9.38;;;;;;;17.05;44.60;101496.94;4956025;28;20400;-62
2021/04/25 01:04:37;;;;;;;13.07;9.35;;;;;;;17.04;44.75;101504.06;4956061;28;20047;-61
2021/04/25 01:07:04;;;;;;;13.38;9.63;;;;;;;17.04;44.43;101505.84;4955906;28;20103;-61
2021/04/25 01:09:31;;;;;;;12.85;9.23;;;;;;;17.02;44.64;101499.81;4951004;28;20051;-62
2021/04/25 01:11:58;;;;;;;12.45;8.77;;;;;;;16.98;44.91;101502.69;4948003;29;20102;-61
2021/04/25 01:14:24;;;;;;;14.68;9.82;;;;;;;16.95;45.10;101491.44;4963729;28;20122;-61
2021/04/25 01:16:50;;;;;;;13.35;9.00;;;;;;;16.91;45.19;101495.28;4955936;28;20047;-67
2021/04/25 01:19:17;;;;;;;15.10;9.85;;;;;;;16.88;45.37;101498.97;4955647;28;20074;-62
2021/04/25 01:21:43;;;;;;;16.05;10.35;;;;;;;16.86;45.47;101506.19;4955903;28;20196;-62
2021/04/25 01:24:09;;;;;;;12.38;9.52;;;;;;;16.83;45.39;101503.75;4955621;28;20055;-62
2021/04/25 01:26:35;;;;;;;11.57;8.55;;;;;;;16.80;45.77;101503.97;4955996;28;20508;-62
2021/04/25 01:29:02;;;;;;;14.38;8.80;;;;;;;16.76;45.59;101500.69;4955016;28;20055;-61
2021/04/25 01:31:29;;;;;;;11.55;8.95;;;;;;;16.75;45.71;101508.75;4961566;28;20051;-62
2021/04/25 01:33:56;;;;;;;13.23;9.25;;;;;;;16.71;46.00;101494.88;4955693;28;20054;-62
2021/04/25 01:36:22;;;;;;;11.93;8.82;;;;;;;16.68;46.14;101491.59;4955303;28;20107;-61
2021/04/25 01:38:55;;;;;;;14.07;9.85;;;;;;;16.65;46.04;101487.34;4955559;28;20047;-61
2021/04/25 01:41:33;;;;;;;11.85;8.90;;;;;;;16.62;46.24;101492.84;4955140;28;20078;-62
2021/04/25 01:44:02;;;;;;;12.13;9.57;;;;;;;16.60;46.50;101492.97;4955294;28;20155;-61
2021/04/25 01:46:29;;;;;;;15.02;9.45;;;;;;;16.57;46.43;101487.88;4955221;28;20126;-62
2021/04/25 01:48:55;;;;;;;12.48;9.35;;;;;;;16.55;46.64;101491.59;4965163;28;20180;-61
2021/04/25 01:51:21;;;;;;;14.82;9.27;;;;;;;16.53;46.74;101499.66;4954975;28;20515;-62
2021/04/25 01:53:47;;;;;;;14.20;9.50;;;;;;;16.47;47.05;101495.63;4955233;28;20503;-62
2021/04/25 01:56:14;;;;;;;15.73;10.23;;;;;;;16.44;47.22;101500.28;4955257;28;20077;-62
2021/04/25 01:58:40;;;;;;;12.60;9.45;;;;;;;16.41;47.27;101493.41;4955021;28;20109;-61
2021/04/25 02:01:06;;;;;;;15.23;9.68;;;;;;;16.39;47.42;101490.03;4955038;28;20044;-62
2021/04/25 02:03:32;;;;;;;13.55;9.27;;;;;;;16.39;47.16;101484.72;4962798;28;20051;-61
2021/04/25 02:05:59;;;;;;;14.98;10.70;;;;;;;16.40;47.09;101485.56;4954644;28;20508;-61
2021/04/25 02:08:25;;;;;;;13.80;10.30;;;;;;;16.39;46.96;101492.69;4954864;28;20467;-61
2021/04/25 02:10:51;;;;;;;14.40;9.50;;;;;;;16.39;47.05;101491.81;4941407;28;20056;-61
2021/04/25 02:13:18;;;;;;;15.00;9.60;;;;;;;16.36;47.04;101490.22;4954778;28;20079;-61
2021/04/25 02:15:45;;;;;;;18.70;10.32;;;;;;;16.31;47.16;101495.00;4954755;28;20156;-61
2021/04/25 02:18:15;;;;;;;12.50;9.27;;;;;;;16.24;47.35;101491.94;4954690;28;20067;-62
2021/04/25 02:20:41;;;;;;;13.30;10.07;;;;;;;16.19;47.60;101490.53;4954746;28;20055;-62
2021/04/25 02:23:08;;;;;;;13.85;10.30;;;;;;;16.16;47.74;101489.81;4954223;29;20043;-62
2021/04/25 02:25:34;;;;;;;14.68;10.43;;;;;;;16.13;47.59;101489.16;4954756;28;20047;-62
2021/04/25 02:28:00;;;;;;;15.48;10.02;;;;;;;16.10;47.65;101486.72;4954320;28;20551;-61
2021/04/25 02:30:30;;;;;;;12.73;9.38;;;;;;;16.05;47.78;101481.75;4954529;28;20059;-61
2021/04/25 02:32:57;;;;;;;15.52;10.18;;;;;;;16.03;47.69;101475.69;4954353;28;20114;-61
2021/04/25 02:35:25;;;;;;;13.45;9.65;;;;;;;16.00;47.80;101474.13;4954439;28;20378;-61
2021/04/25 02:37:52;;;;;;;15.68;10.32;;;;;;;15.99;47.78;101469.75;4954340;28;20098;-62
2021/04/25 02:40:22;;;;;;;15.27;9.75;;;;;;;15.98;47.81;101470.72;4954328;28;20465;-62
2021/04/25 02:42:49;;;;;;;14.07;9.60;;;;;;;15.96;47.89;101469.97;4954575;28;20055;-62
2021/04/25 02:45:17;;;;;;;14.98;10.27;;;;;;;15.95;48.01;101464.81;4967283;28;20043;-61
2021/04/25 02:47:49;;;;;;;13.10;9.75;;;;;;;15.92;48.08;101465.84;4954394;28;20058;-61
2021/04/25 02:50:17;;;;;;;14.43;10.35;;;;;;;15.90;48.11;101464.25;4952609;29;20085;-61
2021/04/25 02:52:43;;;;;;;14.88;10.50;;;;;;;15.88;48.34;101463.50;4954458;28;20101;-61
2021/04/25 02:55:10;;;;;;;12.68;9.48;;;;;;;15.85;48.36;101461.91;4954177;28;20047;-61
2021/04/25 02:57:38;;;;;;;13.95;9.23;;;;;;;15.84;48.54;101462.88;4954272;28;20043;-65
2021/04/25 03:00:07;;;;;;;11.80;9.25;;;;;;;15.82;48.48;101456.81;4962140;28;20105;-61
2021/04/25 03:02:33;;;;;;;15.50;9.70;;;;;;;15.80;48.36;101451.59;4951445;28;20043;-61
2021/04/25 03:04:59;;;;;;;14.18;9.30;;;;;;;15.77;48.49;101453.59;4950720;28;20050;-61
2021/04/25 03:07:26;;;;;;;12.60;9.73;;;;;;;15.75;48.50;101453.72;4950729;28;20043;-61
2021/04/25 03:09:52;;;;;;;12.70;9.73;;;;;;;15.70;48.51;101447.88;4942871;28;20052;-63
2021/04/25 03:12:18;;;;;;;12.75;9.15;;;;;;;15.69;48.64;101448.81;4945293;29;20051;-64
2021/04/25 03:14:44;;;;;;;12.13;9.60;;;;;;;15.66;48.48;101443.75;4951031;28;20073;-63
2021/04/25 03:17:10;;;;;;;12.90;9.93;;;;;;;15.66;48.61;101449.03;4957804;28;20562;-61
2021/04/25 03:19:36;;;;;;;13.15;8.93;;;;;;;15.63;48.67;101444.81;4950751;28;20054;-63
2021/04/25 03:22:02;;;;;;;10.07;8.27;;;;;;;15.61;48.48;101443.22;4950675;28;20120;-64
2021/04/25 03:24:29;;;;;;;11.35;8.20;;;;;;;15.59;48.47;101443.31;4950963;28;20051;-62
2021/04/25 03:26:55;;;;;;;10.75;8.50;;;;;;;15.58;48.44;101435.47;4950502;28;20055;-62
2021/04/25 03:29:21;;;;;;;13.85;8.60;;;;;;;15.55;48.27;101440.97;4950365;28;20051;-61
2021/04/25 03:31:47;;;;;;;10.35;7.85;;;;;;;15.54;48.50;101440.16;4952503;28;20098;-62
2021/04/25 03:34:13;;;;;;;12.48;8.50;;;;;;;15.52;48.33;101436.75;4950496;28;20134;-62
2021/04/25 03:36:39;;;;;;;13.10;8.63;;;;;;;15.51;48.49;101432.41;4950396;28;20106;-69
2021/04/25 03:39:06;;;;;;;13.85;8.82;;;;;;;15.50;48.49;101425.41;4950655;28;20506;-61
2021/04/25 03:41:33;;;;;;;13.82;8.95;;;;;;;15.49;48.40;101429.00;4950413;28;20047;-62
2021/04/25 03:43:59;;;;;;;12.45;9.13;;;;;;;15.48;48.46;101429.97;4950526;28;20047;-61
2021/04/25 03:46:25;;;;;;;11.40;8.43;;;;;;;15.46;48.73;101445.91;4950382;28;20055;-62
2021/04/25 03:48:51;;;;;;;9.70;7.85;;;;;;;15.45;48.71;101441.59;4948473;28;20075;-61
2021/04/25 03:51:17;;;;;;;11.18;8.18;;;;;;;15.44;49.15;101431.97;4943876;29;20789;-62
2021/04/25 03:53:43;;;;;;;11.90;8.93;;;;;;;15.43;49.21;101426.78;4952555;28;20137;-61
2021/04/25 03:56:10;;;;;;;12.20;8.60;;;;;;;15.42;49.65;101433.00;4953928;28;20074;-61
2021/04/25 03:58:36;;;;;;;13.07;8.85;;;;;;;15.37;49.71;101432.47;4954094;28;20047;-62
2021/04/25 04:01:03;;;;;;;14.43;9.60;;;;;;;15.33;49.73;101430.00;4953841;28;20051;-65
2021/04/25 04:03:29;;;;;;;15.73;10.15;;;;;;;15.29;49.69;101432.97;4953744;28;20087;-61
2021/04/25 04:05:55;;;;;;;12.55;9.38;;;;;;;15.25;50.00;101427.03;4953927;28;20557;-61
2021/04/25 04:08:21;;;;;;;15.40;9.98;;;;;;;15.22;50.10;101429.88;4954115;28;20051;-70
2021/04/25 04:10:47;;;;;;;16.52;11.30;;;;;;;15.20;50.00;101431.78;4940042;28;20055;-62
2021/04/25 04:13:13;;;;;;;14.43;10.95;;;;;;;15.20;49.73;101423.84;4954050;28;20098;-64
2021/04/25 04:15:39;;;;;;;15.98;11.00;;;;;;;15.20;49.93;101423.84;4953728;28;20055;-64
2021/04/25 04:18:06;;;;;;;17.83;10.70;;;;;;;15.18;49.85;101423.97;4953644;28;20039;-62
2021/04/25 04:20:32;;;;;;;19.42;13.88;;;;;;;15.18;49.75;101425.72;4953971;28;20047;-62
2021/04/25 04:22:58;;;;;;;18.70;13.18;;;;;;;15.17;49.79;101422.25;4953352;28;20078;-61
2021/04/25 04:25:24;;;;;;;19.42;13.32;;;;;;;15.18;49.67;101421.31;4951095;28;20055;-61
2021/04/25 04:27:56;;;;;;;18.85;12.13;;;;;;;15.17;49.87;101422.25;4953275;28;20047;-63
2021/04/25 04:30:23;;;;;;;23.92;12.80;;;;;;;15.16;49.92;101425.84;4953259;28;20054;-61
2021/04/25 04:32:49;;;;;;;17.20;12.20;;;;;;;15.16;50.14;101428.47;4953383;28;20056;-61
2021/04/25 04:35:15;;;;;;;19.75;13.27;;;;;;;15.16;50.18;101430.25;4953131;28;20047;-62
2021/04/25 04:37:41;;;;;;;17.42;12.23;;;;;;;15.14;50.08;101429.53;4953637;28;20047;-61
2021/04/25 04:40:08;;;;;;;17.00;12.13;;;;;;;15.12;50.07;101432.28;4953096;28;20047;-61
2021/04/25 04:42:34;;;;;;;20.38;13.00;;;;;;;15.13;50.01;101436.59;4956650;28;20043;-61
2021/04/25 04:45:00;;;;;;;17.30;12.02;;;;;;;15.13;49.87;101436.59;4952919;28;20448;-62
2021/04/25 04:47:26;;;;;;;18.17;12.20;;;;;;;15.13;50.25;101438.41;4953368;28;20047;-61
2021/04/25 04:49:53;;;;;;;17.92;12.45;;;;;;;15.11;50.54;101435.00;4953160;28;20058;-61
2021/04/25 04:52:19;;;;;;;19.20;12.55;;;;;;;15.11;50.62;101438.50;4952838;28;20046;-62
2021/04/25 04:54:45;;;;;;;20.10;12.35;;;;;;;15.10;50.87;101431.53;4953143;28;20106;-62
2021/04/25 04:57:15;;;;;;;20.73;13.02;;;;;;;15.11;50.84;101437.66;4952843;28;20102;-61
2021/04/25 04:59:44;;;;;;;20.17;13.00;;;;;;;15.09;51.09;101435.09;4950693;28;20043;-61
2021/04/25 05:02:11;;;;;;;20.05;12.10;;;;;;;15.08;51.25;101427.28;4952777;28;20050;-63
2021/04/25 05:04:37;;;;;;;16.23;12.75;;;;;;;15.06;51.37;101426.53;4951423;28;20059;-62
2021/04/25 05:07:03;;;;;;;17.63;12.68;;;;;;;15.04;51.22;101434.56;4952394;28;20118;-62
2021/04/25 05:09:29;;;;;;;16.73;12.68;;;;;;;15.04;51.38;101431.91;4948039;28;20431;-62
2021/04/25 05:11:56;;;;;;;18.00;12.35;;;;;;;15.05;51.29;101433.63;4944269;29;20098;-61
2021/04/25 05:14:23;;;;;;;21.13;12.75;;;;;;;15.10;51.46;101431.53;4952015;28;20042;-63
2021/04/25 05:16:49;;;;;;;19.73;12.65;;;;;;;15.15;51.84;101431.25;4952697;28;20106;-61
2021/04/25 05:19:15;;;;;;;21.05;12.73;;;;;;;15.18;51.81;101429.25;4952540;28;20215;-62
2021/04/25 05:21:42;;;;;;;20.65;12.23;;;;;;;15.23;51.92;101433.38;4952603;28;20508;-61
2021/04/25 05:24:10;;;;;;;17.58;12.27;;;;;;;15.25;52.14;101434.09;4952356;28;20381;-62
2021/04/25 05:26:36;;;;;;;19.05;12.15;;;;;;;15.26;52.03;101434.03;4938966;29;20427;-63
2021/04/25 05:29:04;;;;;;;18.15;12.02;;;;;;;15.31;52.29;101433.72;4952083;28;20127;-61
2021/04/25 05:31:30;;;;;;;18.52;11.43;;;;;;;15.34;52.32;101434.34;4953893;28;20043;-62
2021/04/25 05:33:56;;;;;;;15.65;11.32;;;;;;;15.41;52.16;101439.25;4952415;28;20055;-64
2021/04/25 05:36:22;;;;;;;14.27;10.52;;;;;;;15.46;51.97;101442.44;4952115;28;20121;-67
2021/04/25 05:38:48;;;;;;;14.65;9.82;;;;;;;15.52;51.57;101450.81;4952366;28;20448;-62
2021/04/25 05:41:16;;;;;;;16.92;11.32;;;;;;;15.58;51.23;101440.75;4952006;28;20055;-61
2021/04/25 05:43:45;;;;;;;20.58;12.52;;;;;;;15.63;51.04;101444.81;4952500;28;20054;-66
2021/04/25 05:46:15;;;;;;;16.60;11.77;;;;;;;15.70;50.98;101444.41;4952005;28;20051;-61
2021/04/25 05:48:45;;;;;;;20.77;12.75;;;;;;;15.76;50.97;101450.13;4951980;28;20106;-62
2021/04/25 05:51:13;;;;;;;16.70;12.10;;;;;;;15.81;50.79;101447.19;4959283;28;20059;-62
2021/04/25 05:53:39;;;;;;;21.33;12.02;;;;;;;15.88;50.46;101450.28;4952028;28;20134;-65
2021/04/25 05:56:06;;;;;;;18.90;11.55;;;;;;;15.93;50.28;101448.16;4952123;28;20056;-61
2021/04/25 05:58:33;;;;;;;17.90;12.52;;;;;;;15.97;50.17;101441.69;4951900;28;20452;-61
2021/04/25 06:00:59;;;;;;;17.27;11.52;;;;;;;16.02;49.99;101444.88;4945512;28;20457;-62
2021/04/25 06:03:25;;;;;;;18.05;12.10;;;;;;;16.04;49.79;101448.28;4935383;29;20048;-63
2021/04/25 06:05:51;;;;;;;16.05;11.75;;;;;;;16.07;49.54;101442.75;4935529;28;20489;-62
2021/04/25 06:08:17;;;;;;;15.35;10.98;;;;;;;16.10;49.47;101441.69;4933319;29;20047;-62
2021/04/25 06:10:43;;;;;;;15.85;10.80;;;;;;;16.13;49.56;101438.84;4933996;29;20106;-62
2021/04/25 06:13:09;;;;;;;14.95;11.05;;;;;;;16.16;49.43;101436.84;4939921;28;20059;-62
2021/04/25 06:15:35;;;;;;;15.02;10.85;;;;;;;16.20;49.38;101442.78;4951196;28;20098;-62
2021/04/25 06:18:03;;;;;;;16.45;11.23;;;;;;;16.24;49.43;101438.09;4950251;29;20647;-62
2021/04/25 06:20:30;;;;;;;15.13;11.32;;;;;;;16.25;49.29;101445.09;4957087;28;20046;-62
2021/04/25 06:22:57;;;;;;;16.08;11.43;;;;;;;16.27;49.14;101444.03;4952358;28;20043;-61
2021/04/25 06:25:23;;;;;;;13.70;10.27;;;;;;;16.31;49.26;101444.69;4951518;28;20389;-62
2021/04/25 06:27:49;;;;;;;14.85;10.95;;;;;;;16.36;49.45;101439.06;4950956;28;20051;-62
2021/04/25 06:30:17;;;;;;;15.98;11.13;;;;;;;16.41;49.52;101436.94;4951068;28;20524;-64
2021/04/25 06:32:45;;;;;;;16.13;10.85;;;;;;;16.43;49.71;101433.22;4950964;28;20051;-64
2021/04/25 06:35:13;;;;;;;16.17;11.25;;;;;;;16.47;49.56;101445.28;4950879;28;20039;-65
2021/04/25 06:37:41;;;;;;;17.42;11.48;;;;;;;16.52;49.45;101438.81;4954112;28;20106;-65
2021/04/25 06:40:09;;;;;;;19.02;11.70;;;;;;;16.56;49.50;101435.84;4950798;28;20098;-61
2021/04/25 06:42:35;;;;;;;16.65;12.52;;;;;;;16.61;49.59;101432.88;4951422;28;20091;-61
2021/04/25 06:45:02;;;;;;;19.83;12.18;;;;;;;16.65;49.72;101431.69;4950848;28;20543;-61
2021/04/25 06:47:28;;;;;;;25.52;12.50;;;;;;;16.71;49.45;101420.66;4951155;28;20108;-62
2021/04/25 06:49:54;;;;;;;22.35;12.32;;;;;;;16.78;49.61;101429.84;4950472;28;20144;-61
2021/04/25 06:52:20;;;;;;;19.80;11.82;;;;;;;16.84;49.51;101433.88;4955395;28;20078;-61
2021/04/25 06:54:46;;;;;;;18.88;12.00;;;;;;;16.89;49.44;101437.03;4950732;28;20458;-61
2021/04/25 06:57:13;;;;;;;19.40;11.20;;;;;;;16.96;49.30;101427.72;4950942;28;20059;-61
2021/04/25 06:59:39;;;;;;;17.70;11.13;;;;;;;17.03;48.89;101430.75;4950693;28;20055;-61
2021/04/25 07:02:05;;;;;;;18.67;12.27;;;;;;;17.10;48.81;101432.00;4950872;28;20070;-61
2021/04/25 07:04:31;;;;;;;16.55;11.43;;;;;;;17.13;48.70;101437.09;4950832;28;20511;-61
2021/04/25 07:06:57;;;;;;;15.00;10.80;;;;;;;17.14;48.47;101438.78;4950358;28;20051;-61
2021/04/25 07:09:23;;;;;;;18.42;11.30;;;;;;;17.19;48.32;101432.28;4937951;28;20048;-61
2021/04/25 07:11:50;;;;;;;14.30;10.85;;;;;;;17.21;48.31;101430.38;4941505;29;20556;-60
2021/04/25 07:14:16;;;;;;;17.48;11.18;;;;;;;17.23;47.98;101421.34;4950268;28;20074;-61
2021/04/25 07:16:42;;;;;;;17.30;11.43;;;;;;;17.29;48.11;101417.38;4951029;28;20153;-61
2021/04/25 07:19:08;;;;;;;17.65;12.10;;;;;;;17.33;47.99;101424.16;4950565;28;20053;-61
2021/04/25 07:21:35;;;;;;;16.95;12.02;;;;;;;17.40;47.54;101425.38;4950648;28;20051;-61
2021/04/25 07:24:01;;;;;;;16.80;11.50;;;;;;;17.45;47.27;101425.88;4950357;28;20567;-61
2021/04/25 07:26:33;;;;;;;18.10;12.05;;;;;;;17.52;47.18;101420.97;4957639;28;20046;-61
2021/04/25 07:29:00;;;;;;;16.42;11.27;;;;;;;17.58;47.31;101423.16;4953250;28;20058;-61
2021/04/25 07:31:26;;;;;;;17.13;10.65;;;;;;;17.64;47.13;101419.19;4954118;28;20047;-61
2021/04/25 07:33:52;;;;;;;17.15;11.25;;;;;;;17.71;47.04;101422.22;4954573;28;20055;-62
2021/04/25 07:36:19;;;;;;;14.23;10.65;;;;;;;17.77;46.81;101416.44;4954243;28;20459;-62
2021/04/25 07:38:45;;;;;;;17.92;11.15;;;;;;;17.83;47.21;101418.63;4954360;28;20098;-62
2021/04/25 07:41:12;;;;;;;16.92;11.63;;;;;;;17.87;46.78;101417.44;4954418;28;20109;-62
2021/04/25 07:43:38;;;;;;;17.52;11.00;;;;;;;17.91;46.45;101418.88;4954820;28;20039;-62
2021/04/25 07:46:05;;;;;;;25.73;11.20;;;;;;;17.97;45.89;101412.28;4954058;28;20110;-62
2021/04/25 07:48:31;;;;;;;18.02;11.15;;;;;;;18.07;45.53;101413.28;4951767;28;20075;-61
2021/04/25 07:50:57;;;;;;;15.63;11.05;;;;;;;18.13;45.19;101409.28;4936484;29;20056;-62
2021/04/25 07:53:23;;;;;;;15.80;10.95;;;;;;;18.20;44.87;101407.84;4951152;29;20492;-60
2021/04/25 07:55:50;;;;;;;16.45;10.73;;;;;;;18.31;44.96;101412.31;4944041;28;20110;-62
2021/04/25 07:58:16;;;;;;;15.60;10.15;;;;;;;18.41;44.52;101409.75;4953848;28;20106;-61
2021/04/25 08:00:42;;;;;;;14.82;10.38;;;;;;;18.46;44.40;101409.41;4956589;28;20101;-62
2021/04/25 08:03:08;;;;;;;14.88;10.43;;;;;;;18.50;43.63;101405.53;4953167;28;20075;-61
2021/04/25 08:05:35;;;;;;;12.85;9.15;;;;;;;18.58;43.67;101417.22;4953570;28;20118;-61
2021/04/25 08:08:02;;;;;;;12.70;8.27;;;;;;;18.65;43.04;101408.78;4953417;28;20090;-61
2021/04/25 08:10:28;;;;;;;12.63;8.27;;;;;;;18.75;41.57;101410.56;4941067;28;20500;-61
2021/04/25 08:12:55;;;;;;;13.05;8.65;;;;;;;18.89;40.43;101412.13;4953306;29;20397;-63
2021/04/25 08:15:23;;;;;;;14.38;9.63;;;;;;;19.01;39.65;101399.66;4953675;28;20108;-63
2021/04/25 08:17:56;;;;;;;18.85;8.82;;;;;;;19.17;39.41;101398.38;4963482;28;20074;-63
2021/04/25 08:20:23;;;;;;;13.70;9.13;;;;;;;19.30;39.24;101393.75;4953715;28;20055;-63
2021/04/25 08:22:50;;;;;;;16.70;9.63;;;;;;;19.42;39.51;101390.03;4953639;28;20098;-63
2021/04/25 08:25:16;;;;;;;17.55;9.55;;;;;;;19.54;39.36;101395.28;4953558;28;20055;-61
2021/04/25 08:27:43;;;;;;;12.30;8.63;;;;;;;19.64;38.93;101393.56;4953466;28;20401;-61
2021/04/25 08:30:10;;;;;;;13.32;8.82;;;;;;;19.73;38.11;101390.13;4953395;28;20643;-61
2021/04/25 08:32:36;;;;;;;11.88;7.75;;;;;;;19.82;36.62;101396.50;4960060;28;20070;-66
2021/04/25 08:35:04;;;;;;;11.63;7.80;;;;;;;19.92;36.04;101393.88;4940217;28;20051;-64
2021/04/25 08:37:31;;;;;;;11.07;7.32;;;;;;;20.00;35.19;101388.75;4936233;29;20040;-63
2021/04/25 08:39:58;;;;;;;11.32;8.13;;;;;;;20.09;34.96;101387.09;4950828;28;20090;-66
2021/04/25 08:42:24;;;;;;;13.60;8.82;;;;;;;20.20;34.87;101384.34;4953096;28;20381;-66
2021/04/25 08:44:54;;;;;;;11.70;7.82;;;;;;;20.36;34.67;101385.66;4953051;28;20051;-68
2021/04/25 08:47:22;;;;;;;13.38;8.57;;;;;;;20.50;34.71;101387.94;4952895;28;20477;-67
2021/04/25 08:49:49;;;;;;;14.75;9.68;;;;;;;20.65;34.67;101388.41;4952925;28;20412;-68
2021/04/25 08:52:23;;;;;;;13.38;10.02;;;;;;;20.80;35.23;101386.22;4952621;28;20043;-68
2021/04/25 08:54:53;;;;;;;14.23;9.85;;;;;;;20.94;34.71;101378.78;4947659;29;20055;-67
2021/04/25 08:57:41;;;;;;;14.38;7.13;;;;;;;21.04;34.42;101384.97;4946384;28;20047;-67
2021/04/25 09:00:09;;;;;;;12.27;7.30;;;;;;;21.11;33.11;101387.94;4934223;29;20048;-67
2021/04/25 09:02:36;;;;;;;12.77;7.70;;;;;;;21.13;33.05;101375.28;4933268;29;20048;-68
2021/04/25 09:05:03;;;;;;;13.43;7.88;;;;;;;21.18;32.40;101378.38;4937232;29;20047;-68
2021/04/25 09:07:30;;;;;;;11.40;7.03;;;;;;;21.28;31.98;101375.69;4936381;28;20090;-68
2021/04/25 09:10:00;;;;;;;15.65;8.15;;;;;;;21.40;31.66;101368.38;4934368;29;20063;-68
2021/04/25 09:12:39;;;;;;;14.32;9.25;;;;;;;21.51;32.13;101376.25;4934549;29;20129;-66
2021/04/25 09:15:12;;;;;;;14.85;8.73;;;;;;;21.60;32.13;101371.88;4939284;28;20071;-66
2021/04/25 09:17:53;;;;;;;11.73;8.10;;;;;;;21.70;32.08;101370.03;4948944;29;20055;-69
2021/04/25 09:20:29;;;;;;;14.05;8.23;;;;;;;21.78;31.98;101361.31;4952153;28;20094;-70
2021/04/25 09:22:56;;;;;;;14.45;9.55;;;;;;;21.84;31.41;101350.88;4952265;28;20492;-70
2021/04/25 09:25:22;;;;;;;14.00;9.00;;;;;;;21.91;31.03;101344.94;4952305;28;20047;-70
2021/04/25 09:27:51;;;;;;;12.35;8.45;;;;;;;22.04;31.04;101341.94;4939891;28;20060;-68
2021/04/25 09:30:25;;;;;;;14.90;8.82;;;;;;;22.19;30.42;101337.75;4933646;29;20943;-70
2021/04/25 09:33:02;;;;;;;18.38;9.57;;;;;;;22.27;30.35;101339.69;4933547;29;20052;-68
2021/04/25 09:35:29;;;;;;;11.90;8.18;;;;;;;22.35;31.04;101348.66;4939400;28;20075;-69
2021/04/25 09:37:55;;;;;;;13.00;8.13;;;;;;;22.47;31.13;101338.63;4943098;28;20511;-69
2021/04/25 09:40:24;;;;;;;13.18;8.27;;;;;;;22.56;30.75;101336.03;4943508;28;20440;-68
2021/04/25 09:43:07;;;;;;;13.45;8.63;;;;;;;22.67;30.55;101330.47;4952236;28;20571;-67
2021/04/25 09:45:49;;;;;;;15.40;8.40;;;;;;;22.65;30.36;101325.28;4933395;28;20154;-64
2021/04/25 09:48:28;;;;;;;12.88;8.20;;;;;;;22.70;30.21;101319.44;4933308;29;20048;-65
2021/04/25 09:51:25;;;;;;;14.15;7.82;;;;;;;22.81;30.32;101313.03;4941067;28;20042;-68
2021/04/25 09:53:54;;;;;;;11.85;7.03;;;;;;;22.93;29.93;101317.16;4930739;28;20102;-67
2021/04/25 09:56:23;;;;;;;10.77;7.13;;;;;;;23.09;29.95;101312.94;4945475;29;20460;-67
2021/04/25 09:58:56;;;;;;;10.30;7.03;;;;;;;23.22;29.79;101316.06;4936671;29;20103;-66
2021/04/25 10:01:26;;;;;;;14.32;6.90;;;;;;;23.26;29.88;101320.13;4936522;29;20073;-64
2021/04/25 10:03:53;;;;;;;12.60;6.93;;;;;;;23.31;29.32;101312.47;4935138;29;20394;-64
2021/04/25 10:06:20;;;;;;;14.20;7.82;;;;;;;23.36;28.78;101316.50;4932891;29;20044;-64
2021/04/25 10:08:50;;;;;;;10.38;7.07;;;;;;;23.48;28.68;101310.72;4937773;28;20103;-66
2021/04/25 10:11:19;;;;;;;11.82;7.18;;;;;;;23.58;28.27;101301.72;4944937;29;20066;-69
2021/04/25 10:13:47;;;;;;;11.88;8.30;;;;;;;23.73;28.62;101310.03;4945055;28;20059;-66
2021/04/25 10:16:15;;;;;;;16.23;7.55;;;;;;;23.80;28.62;101303.03;4944246;29;20043;-66
2021/04/25 10:18:42;;;;;;;15.70;8.88;;;;;;;23.89;29.11;101296.69;4944928;28;20047;-67
2021/04/25 10:21:08;;;;;;;22.55;9.20;;;;;;;23.94;29.39;101296.25;4944822;28;20051;-67
2021/04/25 10:23:35;;;;;;;10.98;6.50;;;;;;;23.99;29.03;101309.19;4942447;29;20039;-63
2021/04/25 10:26:15;;;;;;;11.90;6.75;;;;;;;24.07;28.35;101303.84;4956111;28;20129;-63
2021/04/25 10:28:54;;;;;;;16.13;7.25;;;;;;;24.15;27.81;101303.88;4950970;28;20055;-63
2021/04/25 10:31:28;;;;;;;10.95;6.88;;;;;;;24.23;28.11;101306.56;4950219;28;20054;-64
2021/04/25 10:34:04;;;;;;;11.18;6.35;;;;;;;24.34;27.50;101307.25;4940856;28;20057;-65
2021/04/25 10:36:50;;;;;;;11.80;6.50;;;;;;;24.45;27.15;101305.13;4940428;28;20101;-63
2021/04/25 10:39:53;;;;;;;12.98;7.47;;;;;;;24.52;27.18;101294.56;4950576;28;20074;-64
2021/04/25 10:45:03;;;;;;;11.35;6.78;;;;;;;24.71;27.17;101290.75;4951292;28;20110;-63
2021/04/25 10:47:40;;;;;;;12.95;7.10;;;;;;;24.83;27.12;101285.88;4950933;28;20055;-64
2021/04/25 10:50:09;;;;;;;10.65;6.18;;;;;;;24.93;26.94;101285.72;4950424;28;20039;-66
2021/04/25 10:52:36;;;;;;;11.98;7.63;;;;;;;24.82;26.79;101289.56;4948218;28;20488;-64
2021/04/25 10:55:16;;;;;;;12.25;7.43;;;;;;;24.70;26.41;101274.84;4950775;28;20047;-63
2021/04/25 10:57:55;;;;;;;14.57;7.88;;;;;;;24.77;26.29;101284.72;4950507;28;20047;-63
2021/04/25 11:00:30;;;;;;;13.13;7.70;;;;;;;24.78;26.40;101281.03;4953612;28;20058;-65
2021/04/25 11:03:01;;;;;;;12.50;7.80;;;;;;;24.91;26.11;101269.78;4950841;28;20386;-65
2021/04/25 11:05:36;;;;;;;13.13;8.50;;;;;;;24.95;26.06;101267.63;4950445;28;20051;-66
2021/04/25 11:08:04;;;;;;;13.02;7.65;;;;;;;24.99;26.32;101266.25;4938129;29;20051;-66
2021/04/25 11:10:55;;;;;;;14.05;8.07;;;;;;;25.06;26.18;101264.56;4949904;28;20563;-68
2021/04/25 11:13:34;;;;;;;13.02;7.70;;;;;;;25.17;26.15;101265.22;4944504;29;20047;-66
2021/04/25 11:16:05;;;;;;;14.00;7.85;;;;;;;25.12;26.41;101252.31;4949893;28;20289;-67
2021/04/25 11:19:04;;;;;;;13.57;7.70;;;;;;;25.14;26.00;101253.00;4941346;28;20050;-67
2021/04/25 11:21:32;;;;;;;11.00;6.85;;;;;;;25.30;26.19;101257.47;4937279;29;20453;-66